Time;durP1;ratioP1;P1;durP2;ratioP2;P2;SDS_P1;SDS_P2;PMS_P1;PMS_P2;Temp;Humidity;BMP_temperature;BMP_pressure;BME280_temperature;BME280_humidity;BME280_pressure;Samples;Min_cycle;Max_cycle;Signal;HPM_P1;HPM_P2
2023/10/03 00:00:28;;;;;;;22.80;8.43;;;;;;;;;;5065451;28;20031;-78
2023/10/03 00:03:01;;;;;;;24.38;9.18;;;;;;;;;;5041859;28;20048;-77
2023/10/03 00:05:28;;;;;;;26.67;9.45;;;;;;;;;;5064572;28;20037;-78
2023/10/03 00:07:54;;;;;;;26.25;8.95;;;;;;;;;;5057047;28;20043;-77
2023/10/03 00:10:20;;;;;;;28.48;10.02;;;;;;;;;;5070048;28;20052;-78
2023/10/03 00:12:48;;;;;;;27.60;9.70;;;;;;;;;;5070630;28;20048;-78
2023/10/03 00:15:18;;;;;;;26.13;9.82;;;;;;;;;;5075357;28;20032;-78
2023/10/03 00:17:47;;;;;;;33.00;9.95;;;;;;;;;;5071069;28;20039;-78
2023/10/03 00:20:16;;;;;;;28.50;9.27;;;;;;;;;;5064831;28;20094;-78
2023/10/03 00:22:41;;;;;;;27.10;8.82;;;;;;;;;;5072569;28;20048;-79
2023/10/03 00:25:17;;;;;;;26.23;9.40;;;;;;;;;;5070947;28;20677;-79
2023/10/03 00:27:46;;;;;;;25.95;8.77;;;;;;;;;;5048990;28;20033;-78
2023/10/03 00:30:19;;;;;;;25.55;8.90;;;;;;;;;;5063720;28;20021;-79
2023/10/03 00:32:45;;;;;;;26.33;9.43;;;;;;;;;;5065816;28;20028;-79
2023/10/03 00:35:11;;;;;;;22.92;9.18;;;;;;;;;;5059615;28;20063;-79
2023/10/03 00:37:37;;;;;;;25.65;8.50;;;;;;;;;;5052727;28;20037;-79
2023/10/03 00:40:27;;;;;;;26.92;9.68;;;;;;;;;;5073692;28;20116;-79
2023/10/03 00:42:59;;;;;;;28.90;8.82;;;;;;;;;;5050229;28;20036;-79
2023/10/03 00:45:29;;;;;;;23.63;8.45;;;;;;;;;;5050932;28;20032;-79
2023/10/03 00:47:58;;;;;;;24.13;7.97;;;;;;;;;;5065821;28;20052;-79
2023/10/03 00:50:31;;;;;;;23.88;8.13;;;;;;;;;;5073315;28;20059;-79
2023/10/03 00:53:04;;;;;;;24.38;8.32;;;;;;;;;;5030465;28;20037;-79
2023/10/03 00:55:35;;;;;;;25.10;8.50;;;;;;;;;;5070584;28;20074;-78
2023/10/03 01:00:31;;;;;;;28.92;9.70;;;;;;;;;;5076535;28;20039;-77
2023/10/03 01:02:57;;;;;;;26.27;8.95;;;;;;;;;;5079508;28;20032;-76
2023/10/03 01:05:23;;;;;;;23.48;8.43;;;;;;;;;;5058200;28;20121;-77
2023/10/03 01:07:49;;;;;;;22.98;7.85;;;;;;;;;;5069313;28;20044;-78
2023/10/03 01:10:18;;;;;;;29.92;8.27;;;;;;;;;;5074697;28;20040;-79
2023/10/03 01:12:45;;;;;;;22.80;7.65;;;;;;;;;;5061420;28;20025;-79
2023/10/03 01:15:15;;;;;;;24.15;7.90;;;;;;;;;;5047677;28;20115;-79
2023/10/03 01:17:43;;;;;;;23.35;8.98;;;;;;;;;;5051559;28;20077;-78
2023/10/03 01:20:16;;;;;;;23.55;7.70;;;;;;;;;;5056787;28;20029;-79
2023/10/03 01:22:44;;;;;;;25.92;8.40;;;;;;;;;;5062034;28;20029;-79
2023/10/03 01:25:12;;;;;;;24.92;8.10;;;;;;;;;;5061094;28;20489;-78
2023/10/03 01:27:37;;;;;;;27.33;8.68;;;;;;;;;;5063250;28;20040;-79
2023/10/03 01:30:05;;;;;;;28.48;9.07;;;;;;;;;;5058517;28;20025;-79
2023/10/03 01:32:35;;;;;;;24.83;8.02;;;;;;;;;;5064743;28;20048;-79
2023/10/03 01:35:07;;;;;;;28.38;9.20;;;;;;;;;;5065449;28;20040;-79
2023/10/03 01:37:33;;;;;;;32.47;11.55;;;;;;;;;;5041188;28;20033;-78
2023/10/03 01:39:58;;;;;;;40.03;12.65;;;;;;;;;;5056464;28;20036;-78
2023/10/03 01:42:24;;;;;;;46.97;14.98;;;;;;;;;;5038237;28;20029;-79
2023/10/03 01:44:50;;;;;;;48.17;16.08;;;;;;;;;;5057798;28;20432;-78
2023/10/03 01:47:16;;;;;;;54.50;17.70;;;;;;;;;;5049704;28;20329;-78
2023/10/03 01:49:42;;;;;;;39.47;12.73;;;;;;;;;;5065729;28;20035;-79
2023/10/03 01:52:07;;;;;;;32.85;11.00;;;;;;;;;;5061239;28;20041;-78
2023/10/03 01:54:34;;;;;;;30.75;10.15;;;;;;;;;;5060057;28;20427;-78
2023/10/03 01:57:00;;;;;;;31.70;10.02;;;;;;;;;;5063163;28;20099;-78
2023/10/03 01:59:25;;;;;;;28.42;9.98;;;;;;;;;;5052474;28;20067;-78
2023/10/03 02:01:51;;;;;;;26.58;9.23;;;;;;;;;;5043912;28;20044;-79
2023/10/03 02:04:16;;;;;;;25.52;9.43;;;;;;;;;;5054689;28;20119;-78
2023/10/03 02:06:41;;;;;;;22.92;8.10;;;;;;;;;;5054196;28;20025;-78
2023/10/03 02:09:08;;;;;;;24.08;8.60;;;;;;;;;;5053306;28;20116;-79
2023/10/03 02:11:34;;;;;;;23.80;8.30;;;;;;;;;;5066358;28;20033;-78
2023/10/03 02:14:02;;;;;;;21.55;7.75;;;;;;;;;;5037014;28;20501;-79
2023/10/03 02:16:28;;;;;;;22.10;8.38;;;;;;;;;;5066444;28;20116;-79
2023/10/03 02:18:55;;;;;;;19.77;7.25;;;;;;;;;;5066705;28;20082;-79
2023/10/03 02:21:20;;;;;;;23.05;7.88;;;;;;;;;;5065367;28;20515;-79
2023/10/03 02:23:47;;;;;;;25.05;7.95;;;;;;;;;;5058659;28;20021;-78
2023/10/03 02:26:13;;;;;;;22.00;7.85;;;;;;;;;;5059316;28;20040;-78
2023/10/03 02:28:40;;;;;;;27.08;8.43;;;;;;;;;;5044460;28;20025;-77
2023/10/03 02:31:09;;;;;;;21.58;7.20;;;;;;;;;;5062596;28;20041;-79
2023/10/03 02:33:40;;;;;;;25.60;8.70;;;;;;;;;;5063275;28;20116;-79
2023/10/03 02:36:07;;;;;;;21.38;8.07;;;;;;;;;;5048200;28;20044;-78
2023/10/03 02:38:38;;;;;;;20.35;7.25;;;;;;;;;;5056487;28;20509;-79
2023/10/03 02:41:11;;;;;;;21.33;7.47;;;;;;;;;;5066181;28;20029;-79
2023/10/03 02:43:43;;;;;;;19.88;7.10;;;;;;;;;;5049643;28;20043;-79
2023/10/03 02:46:12;;;;;;;22.25;7.55;;;;;;;;;;5057913;28;20041;-79
2023/10/03 02:48:38;;;;;;;19.17;7.65;;;;;;;;;;5055029;28;20039;-79
2023/10/03 02:51:05;;;;;;;19.00;7.05;;;;;;;;;;5045640;28;20039;-79
2023/10/03 02:53:31;;;;;;;20.77;8.02;;;;;;;;;;5057591;28;20013;-79
2023/10/03 02:55:58;;;;;;;22.80;7.38;;;;;;;;;;5043162;28;20035;-78
2023/10/03 02:58:23;;;;;;;23.65;8.88;;;;;;;;;;5049483;28;20091;-78
2023/10/03 03:00:53;;;;;;;23.45;8.35;;;;;;;;;;5081419;22;20443;-85
2023/10/03 03:03:19;;;;;;;24.48;7.72;;;;;;;;;;5055919;28;20028;-85
2023/10/03 03:05:44;;;;;;;24.40;7.28;;;;;;;;;;5056312;28;20028;-85
2023/10/03 03:08:22;;;;;;;24.70;8.05;;;;;;;;;;5056258;28;20177;-85
2023/10/03 03:10:51;;;;;;;20.52;7.18;;;;;;;;;;5037395;28;20040;-85
2023/10/03 03:13:19;;;;;;;20.05;7.53;;;;;;;;;;5056152;28;20440;-84
2023/10/03 03:15:59;;;;;;;23.20;7.80;;;;;;;;;;5055778;28;20125;-82
2023/10/03 03:18:25;;;;;;;20.83;6.97;;;;;;;;;;5056645;28;20037;-86
2023/10/03 03:21:02;;;;;;;24.13;7.82;;;;;;;;;;5056305;28;20048;-83
2023/10/03 03:23:30;;;;;;;17.95;6.38;;;;;;;;;;5055954;28;20045;-81
2023/10/03 03:28:37;;;;;;;18.67;6.63;;;;;;;;;;5054991;28;20033;-83
2023/10/03 03:31:02;;;;;;;18.25;7.60;;;;;;;;;;5055464;28;20033;-83
2023/10/03 03:33:27;;;;;;;20.23;6.60;;;;;;;;;;5054936;28;20033;-83
2023/10/03 03:35:56;;;;;;;18.95;6.53;;;;;;;;;;5055162;28;20025;-84
2023/10/03 03:38:21;;;;;;;19.77;5.97;;;;;;;;;;5037307;28;20040;-84
2023/10/03 03:40:53;;;;;;;19.20;6.53;;;;;;;;;;5037134;28;20561;-82
2023/10/03 03:43:22;;;;;;;21.02;7.03;;;;;;;;;;5037061;28;20116;-83
2023/10/03 03:45:48;;;;;;;19.38;7.57;;;;;;;;;;5036904;28;20052;-84
2023/10/03 03:48:14;;;;;;;22.17;7.82;;;;;;;;;;5053940;28;20013;-83
2023/10/03 03:50:40;;;;;;;17.20;6.00;;;;;;;;;;5055891;28;20025;-86
2023/10/03 03:53:06;;;;;;;19.42;6.65;;;;;;;;;;5053973;28;20041;-84
2023/10/03 03:55:34;;;;;;;19.73;6.18;;;;;;;;;;5055591;28;20064;-83
2023/10/03 03:57:59;;;;;;;24.08;6.35;;;;;;;;;;5056281;28;20041;-84
2023/10/03 04:00:28;;;;;;;18.55;6.18;;;;;;;;;;5057309;28;20029;-84
2023/10/03 04:02:57;;;;;;;22.45;5.15;;;;;;;;;;5058014;28;20070;-82
2023/10/03 04:05:23;;;;;;;16.73;6.30;;;;;;;;;;5059663;28;20543;-80
2023/10/03 04:07:48;;;;;;;18.42;6.35;;;;;;;;;;5063361;28;20029;-78
2023/10/03 04:10:14;;;;;;;13.80;5.93;;;;;;;;;;5045475;28;20471;-82
2023/10/03 04:12:43;;;;;;;15.65;6.25;;;;;;;;;;5065495;28;20029;-82
2023/10/03 04:15:13;;;;;;;16.20;5.25;;;;;;;;;;5074423;28;20090;-81
2023/10/03 04:17:40;;;;;;;15.32;5.80;;;;;;;;;;5072040;28;20524;-82
2023/10/03 04:20:19;;;;;;;20.00;7.40;;;;;;;;;;5074281;28;20029;-80
2023/10/03 04:22:47;;;;;;;19.20;6.38;;;;;;;;;;5067115;28;20120;-79
2023/10/03 04:25:19;;;;;;;15.65;5.05;;;;;;;;;;5069037;28;20040;-80
2023/10/03 04:27:48;;;;;;;17.27;6.28;;;;;;;;;;5068030;28;20525;-81
2023/10/03 04:30:14;;;;;;;16.48;5.65;;;;;;;;;;5052905;28;20028;-82
2023/10/03 04:32:41;;;;;;;22.70;6.78;;;;;;;;;;5053227;28;20020;-81
2023/10/03 04:35:13;;;;;;;25.38;8.25;;;;;;;;;;5069725;28;20040;-81
2023/10/03 04:37:42;;;;;;;16.95;6.20;;;;;;;;;;5073716;28;20033;-82
2023/10/03 04:40:22;;;;;;;18.30;6.93;;;;;;;;;;5064873;28;20033;-80
2023/10/03 04:42:52;;;;;;;20.02;6.90;;;;;;;;;;5069553;28;20037;-82
2023/10/03 04:45:19;;;;;;;24.92;6.80;;;;;;;;;;5070617;28;20013;-81
2023/10/03 04:47:48;;;;;;;18.17;6.30;;;;;;;;;;5066103;28;20008;-80
2023/10/03 04:50:18;;;;;;;17.60;6.22;;;;;;;;;;5071495;28;20049;-81
2023/10/03 04:52:48;;;;;;;15.52;6.43;;;;;;;;;;5065052;28;20083;-79
2023/10/03 04:55:16;;;;;;;18.10;6.70;;;;;;;;;;5069228;28;20380;-81
2023/10/03 04:57:41;;;;;;;17.35;6.55;;;;;;;;;;5069374;28;20070;-82
2023/10/03 05:00:08;;;;;;;17.58;5.80;;;;;;;;;;5064459;28;20025;-83
2023/10/03 05:02:34;;;;;;;17.75;5.95;;;;;;;;;;5065028;28;20120;-81
2023/10/03 05:04:59;;;;;;;23.83;6.75;;;;;;;;;;5071632;28;20087;-83
2023/10/03 05:07:24;;;;;;;16.42;6.05;;;;;;;;;;5073672;28;20028;-82
2023/10/03 05:09:51;;;;;;;18.08;7.07;;;;;;;;;;5068538;28;20049;-82
2023/10/03 05:12:17;;;;;;;20.58;7.30;;;;;;;;;;5068719;28;20041;-82
2023/10/03 05:14:43;;;;;;;18.60;6.88;;;;;;;;;;5065891;28;20042;-81
2023/10/03 05:17:08;;;;;;;16.17;5.57;;;;;;;;;;5062681;28;20033;-78
2023/10/03 05:19:36;;;;;;;17.15;6.40;;;;;;;;;;5066202;28;20044;-79
2023/10/03 05:22:03;;;;;;;17.85;6.28;;;;;;;;;;5065193;28;20033;-80
2023/10/03 05:24:30;;;;;;;18.92;7.47;;;;;;;;;;5065475;28;20523;-81
2023/10/03 05:26:56;;;;;;;21.00;6.95;;;;;;;;;;5068691;28;20027;-80
2023/10/03 05:29:21;;;;;;;19.88;7.28;;;;;;;;;;5067495;28;20036;-80
2023/10/03 05:31:48;;;;;;;22.27;6.63;;;;;;;;;;5043478;28;20032;-80
2023/10/03 05:34:15;;;;;;;22.20;7.28;;;;;;;;;;5065932;28;20037;-81
2023/10/03 05:36:40;;;;;;;14.73;5.97;;;;;;;;;;5071754;28;20036;-81
2023/10/03 05:39:08;;;;;;;15.35;6.03;;;;;;;;;;5068296;28;20024;-79
2023/10/03 05:41:35;;;;;;;19.08;5.47;;;;;;;;;;5062647;28;20090;-80
2023/10/03 05:44:00;;;;;;;15.50;5.72;;;;;;;;;;5065701;28;20036;-80
2023/10/03 05:46:27;;;;;;;14.82;6.13;;;;;;;;;;5046360;28;20043;-81
2023/10/03 05:48:53;;;;;;;16.25;5.72;;;;;;;;;;5061686;28;20170;-80
2023/10/03 05:51:20;;;;;;;15.57;6.35;;;;;;;;;;5063326;28;20091;-81
2023/10/03 05:53:46;;;;;;;13.85;5.85;;;;;;;;;;5048817;28;20068;-81
2023/10/03 05:56:11;;;;;;;10.70;5.20;;;;;;;;;;5064735;28;20060;-79
2023/10/03 05:58:37;;;;;;;16.75;6.00;;;;;;;;;;5058433;28;20051;-79
2023/10/03 06:01:04;;;;;;;16.50;6.07;;;;;;;;;;5060898;28;20052;-81
2023/10/03 06:03:30;;;;;;;14.38;6.25;;;;;;;;;;5051529;28;20079;-81
2023/10/03 06:05:55;;;;;;;12.85;5.28;;;;;;;;;;5063048;28;20024;-81
2023/10/03 06:08:21;;;;;;;15.52;5.50;;;;;;;;;;5070993;28;20072;-81
2023/10/03 06:10:49;;;;;;;18.33;6.25;;;;;;;;;;5052715;28;20373;-80
2023/10/03 06:13:15;;;;;;;17.45;6.43;;;;;;;;;;5062485;28;20041;-77
2023/10/03 06:15:41;;;;;;;15.10;6.13;;;;;;;;;;5072746;28;20063;-79
2023/10/03 06:18:08;;;;;;;14.80;6.15;;;;;;;;;;5075163;28;20025;-79
2023/10/03 06:20:34;;;;;;;14.68;5.85;;;;;;;;;;5070012;28;20021;-80
2023/10/03 06:23:00;;;;;;;18.58;6.47;;;;;;;;;;5067975;28;20071;-81
2023/10/03 06:25:25;;;;;;;15.13;5.97;;;;;;;;;;5073009;28;20041;-80
2023/10/03 06:27:50;;;;;;;16.77;6.43;;;;;;;;;;5073726;28;20025;-80
2023/10/03 06:30:17;;;;;;;16.10;6.38;;;;;;;;;;5072280;28;20039;-80
2023/10/03 06:32:44;;;;;;;13.88;6.25;;;;;;;;;;5053348;28;20051;-80
2023/10/03 06:35:09;;;;;;;16.92;6.38;;;;;;;;;;5074942;28;20118;-82
2023/10/03 06:37:35;;;;;;;16.67;6.68;;;;;;;;;;5071325;28;20048;-81
2023/10/03 06:40:06;;;;;;;18.20;6.55;;;;;;;;;;5074392;28;20098;-81
2023/10/03 06:42:32;;;;;;;19.65;6.43;;;;;;;;;;5074883;28;20450;-80
2023/10/03 06:44:58;;;;;;;17.23;6.18;;;;;;;;;;5073613;28;20024;-79
2023/10/03 06:47:23;;;;;;;20.20;6.45;;;;;;;;;;5062496;28;20100;-81
2023/10/03 06:49:49;;;;;;;14.57;6.22;;;;;;;;;;5071192;28;20029;-80
2023/10/03 06:52:14;;;;;;;15.88;6.47;;;;;;;;;;5068866;28;20123;-81
2023/10/03 06:54:41;;;;;;;16.90;6.65;;;;;;;;;;5068579;28;20503;-80
2023/10/03 06:57:07;;;;;;;15.70;6.28;;;;;;;;;;5069661;28;20113;-82
2023/10/03 06:59:33;;;;;;;18.90;6.60;;;;;;;;;;5069624;28;20029;-80
2023/10/03 07:01:59;;;;;;;17.58;6.65;;;;;;;;;;5064709;28;20091;-80
2023/10/03 07:04:25;;;;;;;16.50;6.93;;;;;;;;;;5067605;28;20033;-81
2023/10/03 07:06:50;;;;;;;17.52;6.30;;;;;;;;;;5066251;28;20032;-80
2023/10/03 07:09:17;;;;;;;18.35;6.03;;;;;;;;;;5065812;28;20059;-81
2023/10/03 07:11:42;;;;;;;16.10;6.82;;;;;;;;;;5065972;28;20024;-81
2023/10/03 07:14:12;;;;;;;17.75;6.90;;;;;;;;;;5060624;28;20067;-81
2023/10/03 07:16:38;;;;;;;16.50;6.32;;;;;;;;;;5071173;28;20032;-80
2023/10/03 07:19:04;;;;;;;20.00;7.10;;;;;;;;;;5053271;28;20043;-80
2023/10/03 07:21:30;;;;;;;13.55;5.93;;;;;;;;;;5073745;28;20091;-81
2023/10/03 07:23:56;;;;;;;16.55;6.40;;;;;;;;;;5050021;28;20086;-81
2023/10/03 07:26:22;;;;;;;13.20;6.10;;;;;;;;;;5060391;28;20043;-81
2023/10/03 07:28:47;;;;;;;17.08;6.75;;;;;;;;;;5053596;28;20101;-81
2023/10/03 07:31:14;;;;;;;16.15;6.60;;;;;;;;;;5061997;28;20044;-81
2023/10/03 07:33:43;;;;;;;16.17;6.78;;;;;;;;;;5070703;28;20476;-80
2023/10/03 07:36:09;;;;;;;15.65;6.90;;;;;;;;;;5070377;28;20032;-81
2023/10/03 07:38:35;;;;;;;16.90;6.35;;;;;;;;;;5072452;28;20025;-81
2023/10/03 07:41:05;;;;;;;15.63;5.82;;;;;;;;;;5072066;28;20166;-81
2023/10/03 07:43:30;;;;;;;14.90;5.97;;;;;;;;;;5075892;28;20032;-80
2023/10/03 07:45:55;;;;;;;13.30;6.05;;;;;;;;;;5078657;28;20362;-80
2023/10/03 07:48:21;;;;;;;17.48;6.32;;;;;;;;;;5077005;28;20077;-81
2023/10/03 07:50:47;;;;;;;14.25;5.78;;;;;;;;;;5077468;28;20048;-81
2023/10/03 07:53:12;;;;;;;13.63;5.75;;;;;;;;;;5076688;28;20524;-82
2023/10/03 07:55:41;;;;;;;15.13;6.70;;;;;;;;;;5072922;28;20063;-83
2023/10/03 07:58:07;;;;;;;11.80;5.07;;;;;;;;;;5073331;28;20101;-81
2023/10/03 08:00:33;;;;;;;18.42;6.28;;;;;;;;;;5056478;28;20052;-80
2023/10/03 08:02:58;;;;;;;12.02;5.63;;;;;;;;;;5055943;28;20074;-82
2023/10/03 08:05:29;;;;;;;13.93;6.35;;;;;;;;;;5058863;28;20037;-81
2023/10/03 08:07:56;;;;;;;16.63;5.68;;;;;;;;;;5077476;28;20535;-84
2023/10/03 08:10:21;;;;;;;12.88;6.15;;;;;;;;;;5078040;28;20043;-81
2023/10/03 08:12:50;;;;;;;14.43;5.93;;;;;;;;;;5060274;28;20488;-82
2023/10/03 08:15:18;;;;;;;12.55;6.55;;;;;;;;;;5078114;28;20103;-82
2023/10/03 08:17:48;;;;;;;14.02;5.75;;;;;;;;;;5078692;28;20028;-83
2023/10/03 08:20:14;;;;;;;15.95;5.90;;;;;;;;;;5061641;28;20114;-84
2023/10/03 08:22:41;;;;;;;13.13;6.10;;;;;;;;;;5078446;28;20036;-82
2023/10/03 08:25:10;;;;;;;12.18;5.53;;;;;;;;;;5058725;28;20044;-80
2023/10/03 08:27:36;;;;;;;14.68;5.95;;;;;;;;;;5065282;28;20520;-83
2023/10/03 08:30:06;;;;;;;10.65;5.30;;;;;;;;;;5057812;28;20021;-80
2023/10/03 08:32:32;;;;;;;14.25;5.28;;;;;;;;;;5058803;28;20063;-81
2023/10/03 08:34:57;;;;;;;12.73;5.60;;;;;;;;;;5076825;28;20531;-81
2023/10/03 08:37:22;;;;;;;12.27;5.00;;;;;;;;;;5059341;28;20052;-83
2023/10/03 08:39:51;;;;;;;12.20;4.97;;;;;;;;;;5058151;28;20032;-82
2023/10/03 08:42:29;;;;;;;12.43;4.90;;;;;;;;;;5076327;28;20513;-82
2023/10/03 08:44:56;;;;;;;10.90;5.05;;;;;;;;;;5058410;28;20111;-82
2023/10/03 08:47:30;;;;;;;13.10;5.38;;;;;;;;;;5059927;28;20059;-80
2023/10/03 08:50:13;;;;;;;12.85;5.18;;;;;;;;;;5071010;28;20115;-80
2023/10/03 08:52:49;;;;;;;11.30;5.38;;;;;;;;;;5073625;28;20513;-79
2023/10/03 08:55:19;;;;;;;17.92;5.68;;;;;;;;;;5073809;28;20097;-82
2023/10/03 08:57:49;;;;;;;11.43;4.70;;;;;;;;;;5077042;28;20120;-79
2023/10/03 09:00:15;;;;;;;11.80;5.05;;;;;;;;;;5066509;22;20115;-78
2023/10/03 09:02:51;;;;;;;12.55;5.53;;;;;;;;;;5054917;28;20032;-79
2023/10/03 09:05:19;;;;;;;9.75;4.88;;;;;;;;;;5055951;28;20041;-79
2023/10/03 09:07:48;;;;;;;10.07;5.15;;;;;;;;;;5047351;28;20033;-79
2023/10/03 09:10:24;;;;;;;11.40;6.00;;;;;;;;;;5028485;28;20038;-80
2023/10/03 09:12:51;;;;;;;14.65;5.40;;;;;;;;;;5014989;28;20092;-80
2023/10/03 09:15:17;;;;;;;8.98;4.95;;;;;;;;;;5015572;28;20120;-80
2023/10/03 09:17:49;;;;;;;9.73;4.68;;;;;;;;;;5016798;28;20029;-80
2023/10/03 09:20:22;;;;;;;10.00;5.03;;;;;;;;;;5015430;28;20070;-80
2023/10/03 09:22:48;;;;;;;10.30;4.85;;;;;;;;;;5016272;28;20026;-78
2023/10/03 09:25:15;;;;;;;10.60;4.90;;;;;;;;;;5017089;28;20052;-80
2023/10/03 09:27:41;;;;;;;9.68;5.30;;;;;;;;;;5016329;28;20034;-79
2023/10/03 09:30:22;;;;;;;8.13;4.45;;;;;;;;;;5014504;28;20029;-78
2023/10/03 09:32:49;;;;;;;10.30;4.53;;;;;;;;;;5015580;28;20029;-80
2023/10/03 09:35:15;;;;;;;9.32;4.97;;;;;;;;;;5013012;28;20034;-77
2023/10/03 09:37:43;;;;;;;10.15;4.53;;;;;;;;;;5013374;28;20038;-79
2023/10/03 09:40:16;;;;;;;7.75;4.28;;;;;;;;;;5014617;28;20498;-78
2023/10/03 09:42:48;;;;;;;7.43;4.40;;;;;;;;;;5023058;28;20030;-77
2023/10/03 09:45:16;;;;;;;9.20;4.75;;;;;;;;;;5012496;28;20358;-76
2023/10/03 09:47:43;;;;;;;9.68;4.70;;;;;;;;;;5011678;28;20017;-77
2023/10/03 09:50:09;;;;;;;8.25;4.40;;;;;;;;;;5013204;28;20034;-79
2023/10/03 09:52:38;;;;;;;8.25;4.47;;;;;;;;;;5015808;28;20382;-79
2023/10/03 09:57:59;;;;;;;8.30;4.20;;;;;;;;;;5002490;28;20091;-80
2023/10/03 10:03:14;;;;;;;7.60;4.10;;;;;;;;;;5016036;28;20168;-80
2023/10/03 10:05:52;;;;;;;13.13;4.65;;;;;;;;;;5033620;28;20029;-79
2023/10/03 10:08:32;;;;;;;9.98;4.30;;;;;;;;;;5033584;28;20224;-77
2023/10/03 10:11:07;;;;;;;11.63;4.50;;;;;;;;;;5032879;28;20505;-80
2023/10/03 10:13:37;;;;;;;6.95;3.83;;;;;;;;;;5035943;28;20043;-79
2023/10/03 10:16:20;;;;;;;5.03;3.13;;;;;;;;;;5035490;28;20536;-80
2023/10/03 10:18:45;;;;;;;7.40;3.53;;;;;;;;;;5035216;28;20068;-80
2023/10/03 10:21:20;;;;;;;8.33;3.70;;;;;;;;;;5033776;28;20017;-78
2023/10/03 10:24:11;;;;;;;6.78;3.13;;;;;;;;;;5033878;28;20272;-79
2023/10/03 10:26:38;;;;;;;6.13;3.08;;;;;;;;;;5033459;28;20125;-80
2023/10/03 10:29:11;;;;;;;11.90;3.40;;;;;;;;;;5032292;28;20041;-79
2023/10/03 10:31:43;;;;;;;6.72;3.22;;;;;;;;;;5031446;28;20089;-79
2023/10/03 10:34:21;;;;;;;6.75;3.67;;;;;;;;;;5014100;28;20060;-79
2023/10/03 10:37:02;;;;;;;5.18;2.90;;;;;;;;;;5015254;28;20030;-79
2023/10/03 10:40:39;;;;;;;7.57;3.08;;;;;;;;;;5016175;28;20037;-79
2023/10/03 10:43:01;;;;;;;7.78;3.55;;;;;;;;;;5026370;28;20393;-78
2023/10/03 10:45:37;;;;;;;4.20;2.90;;;;;;;;;;5034782;28;20048;-78
2023/10/03 10:48:03;;;;;;;6.68;3.08;;;;;;;;;;5034915;28;20045;-78
2023/10/03 10:51:04;;;;;;;10.00;3.70;;;;;;;;;;5033751;28;20393;-79
2023/10/03 10:53:43;;;;;;;8.07;3.58;;;;;;;;;;5034853;28;20037;-79
2023/10/03 10:56:10;;;;;;;5.00;3.20;;;;;;;;;;5034443;28;20099;-79
2023/10/03 10:59:07;;;;;;;5.80;3.33;;;;;;;;;;5032879;28;20420;-79
2023/10/03 11:01:39;;;;;;;5.82;3.15;;;;;;;;;;5032690;28;20136;-80
2023/10/03 11:04:22;;;;;;;7.95;3.03;;;;;;;;;;5033178;28;20033;-79
2023/10/03 11:06:53;;;;;;;7.78;3.10;;;;;;;;;;5036746;28;20370;-79
2023/10/03 11:09:20;;;;;;;10.65;3.90;;;;;;;;;;5019460;28;20048;-78
2023/10/03 11:11:46;;;;;;;5.65;3.30;;;;;;;;;;5018658;28;20022;-77
2023/10/03 11:14:11;;;;;;;5.57;3.15;;;;;;;;;;5017586;28;20490;-78
2023/10/03 11:16:37;;;;;;;5.40;2.97;;;;;;;;;;5017528;28;20213;-78
2023/10/03 11:19:04;;;;;;;7.38;3.20;;;;;;;;;;5016558;28;20046;-78
2023/10/03 11:21:30;;;;;;;6.43;3.20;;;;;;;;;;5016352;28;20022;-79
2023/10/03 11:24:08;;;;;;;14.05;3.22;;;;;;;;;;5016788;28;20108;-78
2023/10/03 11:26:48;;;;;;;4.95;3.00;;;;;;;;;;5017650;28;20050;-78
2023/10/03 11:29:15;;;;;;;8.85;3.75;;;;;;;;;;5028619;28;20120;-78
2023/10/03 11:31:44;;;;;;;4.97;3.03;;;;;;;;;;5017404;28;20370;-77
2023/10/03 11:34:10;;;;;;;7.72;3.05;;;;;;;;;;5029978;28;20568;-79
2023/10/03 11:36:44;;;;;;;4.72;3.17;;;;;;;;;;5037263;28;20029;-79
2023/10/03 11:39:13;;;;;;;6.25;3.33;;;;;;;;;;5020994;28;20046;-78
2023/10/03 11:41:39;;;;;;;8.70;2.97;;;;;;;;;;5017992;28;20021;-79
2023/10/03 11:44:16;;;;;;;4.32;2.88;;;;;;;;;;5015141;28;20061;-78
2023/10/03 11:46:44;;;;;;;6.25;3.25;;;;;;;;;;5015724;28;20068;-78
2023/10/03 11:49:09;;;;;;;4.20;2.83;;;;;;;;;;5017304;28;20042;-78
2023/10/03 11:51:38;;;;;;;5.88;3.08;;;;;;;;;;5027809;28;20094;-79
2023/10/03 11:54:08;;;;;;;4.72;2.83;;;;;;;;;;5026464;28;20048;-78
2023/10/03 11:56:41;;;;;;;8.38;2.97;;;;;;;;;;5033606;28;20660;-78
2023/10/03 11:59:06;;;;;;;7.63;3.10;;;;;;;;;;5014973;28;20192;-78
2023/10/03 12:01:33;;;;;;;7.10;3.42;;;;;;;;;;5014266;28;20046;-78
2023/10/03 12:03:58;;;;;;;3.40;2.42;;;;;;;;;;5016713;28;20034;-78
2023/10/03 12:06:24;;;;;;;5.45;2.70;;;;;;;;;;5032685;28;20133;-78
2023/10/03 12:08:49;;;;;;;6.63;2.72;;;;;;;;;;5035915;28;20109;-78
2023/10/03 12:11:16;;;;;;;6.55;3.00;;;;;;;;;;5016245;28;20038;-79
2023/10/03 12:13:41;;;;;;;4.07;2.90;;;;;;;;;;5017038;28;20034;-78
2023/10/03 12:16:07;;;;;;;9.00;2.72;;;;;;;;;;5016454;28;20100;-79
2023/10/03 12:18:32;;;;;;;4.60;2.50;;;;;;;;;;5015184;28;20486;-80
2023/10/03 12:20:58;;;;;;;4.55;2.53;;;;;;;;;;5018129;28;20029;-79
2023/10/03 12:23:23;;;;;;;6.43;3.00;;;;;;;;;;5016577;28;20048;-79
2023/10/03 12:25:49;;;;;;;14.55;3.15;;;;;;;;;;5016114;28;20449;-78
2023/10/03 12:28:16;;;;;;;7.40;2.90;;;;;;;;;;5018316;28;20038;-79
2023/10/03 12:30:42;;;;;;;5.05;2.85;;;;;;;;;;5015995;28;20045;-78
2023/10/03 12:33:11;;;;;;;5.75;3.20;;;;;;;;;;5017315;28;20045;-78
2023/10/03 12:35:36;;;;;;;3.35;2.60;;;;;;;;;;5016249;28;20022;-79
2023/10/03 12:38:02;;;;;;;10.23;3.20;;;;;;;;;;5017444;28;20034;-78
2023/10/03 12:40:27;;;;;;;4.75;2.95;;;;;;;;;;5017393;28;20038;-79
2023/10/03 12:42:53;;;;;;;6.28;3.05;;;;;;;;;;5017380;28;20037;-76
2023/10/03 12:45:20;;;;;;;6.03;3.03;;;;;;;;;;5015465;28;20073;-79
2023/10/03 12:47:52;;;;;;;7.53;3.30;;;;;;;;;;5017018;28;20074;-79
2023/10/03 12:50:21;;;;;;;6.50;3.05;;;;;;;;;;5016265;28;20069;-77
2023/10/03 12:52:48;;;;;;;4.28;3.35;;;;;;;;;;5017175;28;20052;-78
2023/10/03 12:55:15;;;;;;;4.10;2.97;;;;;;;;;;5033092;28;20033;-79
2023/10/03 12:57:40;;;;;;;3.47;2.60;;;;;;;;;;5036471;28;20121;-77
2023/10/03 13:00:06;;;;;;;7.72;3.45;;;;;;;;;;5034660;28;20409;-79
2023/10/03 13:02:34;;;;;;;4.63;2.92;;;;;;;;;;5024157;28;20055;-78
2023/10/03 13:04:59;;;;;;;8.38;3.38;;;;;;;;;;5015588;28;20079;-78
2023/10/03 13:07:25;;;;;;;4.72;3.15;;;;;;;;;;5016500;28;20113;-79
2023/10/03 13:09:50;;;;;;;7.18;3.13;;;;;;;;;;5026642;28;20045;-78
2023/10/03 13:12:16;;;;;;;5.70;3.42;;;;;;;;;;5034458;28;20033;-79
2023/10/03 13:14:41;;;;;;;5.32;3.03;;;;;;;;;;5026835;28;20044;-78
2023/10/03 13:17:09;;;;;;;5.68;3.10;;;;;;;;;;5014793;28;20034;-79
2023/10/03 13:19:34;;;;;;;10.98;3.72;;;;;;;;;;5029785;28;20030;-78
2023/10/03 13:22:02;;;;;;;10.57;3.33;;;;;;;;;;5028801;28;20057;-77
2023/10/03 13:24:29;;;;;;;7.43;3.28;;;;;;;;;;5033492;28;20048;-77
2023/10/03 13:26:54;;;;;;;5.43;2.60;;;;;;;;;;5025133;28;20358;-78
2023/10/03 13:29:21;;;;;;;6.35;3.17;;;;;;;;;;5013560;28;20030;-77
2023/10/03 13:31:47;;;;;;;7.88;3.55;;;;;;;;;;5015762;28;20168;-79
2023/10/03 13:34:12;;;;;;;4.55;2.92;;;;;;;;;;5014774;28;20053;-79
2023/10/03 13:36:39;;;;;;;5.07;3.13;;;;;;;;;;5032171;28;20036;-78
2023/10/03 13:39:11;;;;;;;5.50;3.03;;;;;;;;;;4994587;28;20054;-79
2023/10/03 13:41:37;;;;;;;6.93;2.88;;;;;;;;;;5020063;28;20044;-77
2023/10/03 13:44:04;;;;;;;5.75;2.92;;;;;;;;;;5034683;28;20429;-78
2023/10/03 13:46:33;;;;;;;6.13;3.03;;;;;;;;;;5034940;28;20056;-78
2023/10/03 13:48:59;;;;;;;7.95;3.05;;;;;;;;;;5035451;28;20061;-79
2023/10/03 13:51:25;;;;;;;6.68;2.95;;;;;;;;;;5033352;28;20029;-78
2023/10/03 13:53:51;;;;;;;6.07;2.88;;;;;;;;;;5023041;28;20026;-79
2023/10/03 13:56:18;;;;;;;4.82;2.50;;;;;;;;;;5028283;28;20053;-78
2023/10/03 13:58:43;;;;;;;4.47;2.92;;;;;;;;;;5035015;28;20034;-78
2023/10/03 14:01:12;;;;;;;4.43;2.90;;;;;;;;;;5033415;28;20497;-77
2023/10/03 14:03:38;;;;;;;2.78;2.45;;;;;;;;;;5034218;28;20033;-78
2023/10/03 14:06:04;;;;;;;5.45;2.97;;;;;;;;;;5036167;28;20052;-79
2023/10/03 14:08:29;;;;;;;6.05;2.95;;;;;;;;;;5016614;28;20528;-79
2023/10/03 14:10:55;;;;;;;9.80;2.60;;;;;;;;;;5015436;28;20075;-78
2023/10/03 14:13:20;;;;;;;4.10;2.67;;;;;;;;;;5014683;28;20041;-79
2023/10/03 14:15:48;;;;;;;4.57;2.63;;;;;;;;;;5014600;28;20061;-80
2023/10/03 14:18:14;;;;;;;9.07;2.72;;;;;;;;;;5013977;28;20066;-80
2023/10/03 14:20:39;;;;;;;3.97;2.80;;;;;;;;;;5016227;28;20371;-79
2023/10/03 14:23:07;;;;;;;6.07;3.38;;;;;;;;;;5014799;28;20029;-79
2023/10/03 14:25:34;;;;;;;5.05;2.92;;;;;;;;;;5030587;28;20040;-80
2023/10/03 14:27:59;;;;;;;5.07;2.85;;;;;;;;;;5036609;28;20120;-79
2023/10/03 14:30:24;;;;;;;6.28;3.10;;;;;;;;;;5035840;28;20083;-79
2023/10/03 14:32:50;;;;;;;8.38;3.15;;;;;;;;;;5034300;28;20025;-79
2023/10/03 14:35:15;;;;;;;5.75;3.33;;;;;;;;;;5035640;28;20103;-80
2023/10/03 14:37:41;;;;;;;6.82;3.17;;;;;;;;;;5033419;28;20060;-77
2023/10/03 14:40:15;;;;;;;3.08;2.47;;;;;;;;;;5033862;28;20029;-78
2023/10/03 14:42:40;;;;;;;3.75;2.80;;;;;;;;;;5035047;28;20080;-79
2023/10/03 14:45:08;;;;;;;4.82;2.90;;;;;;;;;;5034680;28;20052;-78
2023/10/03 14:47:33;;;;;;;5.00;2.30;;;;;;;;;;5034131;28;20032;-79
2023/10/03 14:49:59;;;;;;;6.75;2.78;;;;;;;;;;5033567;28;20509;-80